Time;durP1;ratioP1;P1;durP2;ratioP2;P2;SDS_P1;SDS_P2;PMS_P1;PMS_P2;Temp;Humidity;BMP_temperature;BMP_pressure;BME280_temperature;BME280_humidity;BME280_pressure;Samples;Min_cycle;Max_cycle;Signal;HPM_P1;HPM_P2
2022/12/29 00:01:57;;;;;;;2.00;1.70;;;;;;;10.03;100.00;100059.03;5113194;28;20100;-38
2022/12/29 00:04:22;;;;;;;2.77;1.67;;;;;;;9.96;100.00;100043.00;5115054;28;20023;-38
2022/12/29 00:06:48;;;;;;;2.13;1.43;;;;;;;9.96;100.00;100043.00;5116439;28;20028;-38
2022/12/29 00:09:15;;;;;;;2.15;1.40;;;;;;;9.92;100.00;100036.44;5116488;28;20421;-38
2022/12/29 00:11:41;;;;;;;3.38;1.33;;;;;;;9.95;100.00;100035.94;5116364;28;20023;-38
2022/12/29 00:16:52;;;;;;;1.65;1.08;;;;;;;9.93;100.00;100029.16;5116842;28;20417;-38
2022/12/29 00:36:03;;;;;;;2.55;0.60;;;;;;;9.72;100.00;100022.63;5033285;28;20091;-38
2022/12/29 00:44:05;;;;;;;1.77;0.55;;;;;;;9.55;100.00;100001.81;5032539;28;20223;-38
2022/12/29 00:46:34;;;;;;;2.17;0.70;;;;;;;9.49;100.00;99992.00;5032834;28;20118;-38
2022/12/29 00:51:45;;;;;;;2.45;0.70;;;;;;;9.31;100.00;99969.84;5032830;28;20040;-38
2022/12/29 00:54:10;;;;;;;1.42;0.65;;;;;;;9.34;100.00;99970.16;5033059;28;20046;-38
2022/12/29 00:56:36;;;;;;;2.13;0.80;;;;;;;9.31;100.00;99970.66;5032597;28;20034;-38
2022/12/29 00:59:03;;;;;;;2.10;0.90;;;;;;;9.30;100.00;99985.19;5069910;28;20043;-38
2022/12/29 01:01:29;;;;;;;2.03;0.70;;;;;;;9.28;100.00;99981.94;5115454;28;20039;-38
2022/12/29 01:03:55;;;;;;;1.52;0.80;;;;;;;9.29;100.00;99975.47;5115028;28;20023;-38
2022/12/29 01:06:20;;;;;;;1.87;0.97;;;;;;;9.31;100.00;99970.66;5115296;28;20055;-38
2022/12/29 01:08:45;;;;;;;1.93;1.10;;;;;;;9.31;100.00;99967.13;5115789;28;20016;-38
2022/12/29 01:11:12;;;;;;;1.50;1.17;;;;;;;9.30;100.00;99960.91;5114913;28;20019;-38
2022/12/29 01:13:40;;;;;;;1.30;1.00;;;;;;;9.32;100.00;99960.66;5115173;28;20031;-38
2022/12/29 01:16:06;;;;;;;1.30;1.10;;;;;;;9.32;100.00;99952.56;5114624;28;20020;-38
2022/12/29 01:18:32;;;;;;;1.95;1.10;;;;;;;9.34;100.00;99950.47;5115090;28;20031;-38
2022/12/29 01:21:00;;;;;;;2.95;1.15;;;;;;;9.34;100.00;99942.38;5115215;28;20027;-38
2022/12/29 01:23:25;;;;;;;3.00;1.20;;;;;;;9.38;100.00;99947.03;5114770;28;20110;-38
2022/12/29 01:25:50;;;;;;;2.40;1.23;;;;;;;9.42;100.00;99960.84;5114885;28;20098;-38
2022/12/29 01:28:15;;;;;;;2.97;1.30;;;;;;;9.49;100.00;99966.91;5115727;28;20030;-38
2022/12/29 01:30:41;;;;;;;2.10;1.00;;;;;;;9.53;100.00;99949.16;5114770;28;20035;-35
2022/12/29 01:33:06;;;;;;;2.37;1.47;;;;;;;9.58;100.00;99945.72;5115080;28;20028;-37
2022/12/29 01:35:32;;;;;;;2.00;1.17;;;;;;;9.52;100.00;99924.06;5114910;28;20464;-38
2022/12/29 01:37:57;;;;;;;3.40;1.00;;;;;;;9.60;100.00;99951.69;5115339;28;20047;-38
2022/12/29 01:40:23;;;;;;;1.75;0.90;;;;;;;9.65;100.00;99928.28;5114403;28;20478;-38
2022/12/29 01:42:48;;;;;;;2.27;1.20;;;;;;;9.70;100.00;99946.44;5115204;28;20023;-38
2022/12/29 01:45:16;;;;;;;1.60;0.97;;;;;;;9.71;100.00;99938.13;5115159;28;20444;-38
2022/12/29 01:47:48;;;;;;;3.13;0.90;;;;;;;9.78;100.00;99937.94;5114806;28;20123;-38
2022/12/29 01:50:22;;;;;;;1.27;0.90;;;;;;;9.75;100.00;99923.03;5114728;28;20040;-38
2022/12/29 01:53:02;;;;;;;1.30;0.85;;;;;;;9.72;100.00;99906.53;5115254;28;20317;-38
2022/12/29 01:55:31;;;;;;;1.25;0.80;;;;;;;9.90;100.00;99938.63;5114731;28;20020;-38
2022/12/29 01:58:00;;;;;;;1.52;0.60;;;;;;;9.92;100.00;99936.53;5114437;28;20115;-38
2022/12/29 02:00:26;;;;;;;1.70;0.80;;;;;;;9.95;100.00;99940.59;5114230;28;20055;-38
2022/12/29 02:02:53;;;;;;;1.13;0.67;;;;;;;9.97;100.00;99935.78;5113982;28;20445;-38
2022/12/29 02:05:27;;;;;;;1.38;0.60;;;;;;;10.03;100.00;99934.78;5114425;28;20027;-38
2022/12/29 02:07:53;;;;;;;1.50;0.90;;;;;;;10.01;100.00;99929.63;5114196;28;20059;-38
2022/12/29 02:10:20;;;;;;;2.10;0.50;;;;;;;10.03;100.00;99938.28;5114907;28;20070;-38
2022/12/29 02:12:46;;;;;;;3.92;1.30;;;;;;;10.05;100.00;99933.47;5114077;28;20028;-38
2022/12/29 02:15:13;;;;;;;2.50;0.75;;;;;;;10.07;100.00;99939.44;5113717;28;20098;-38
2022/12/29 02:18:20;;;;;;;2.22;0.70;;;;;;;10.10;100.00;99934.59;5113555;28;20070;-38
2022/12/29 02:20:45;;;;;;;3.00;0.75;;;;;;;10.10;100.00;99940.81;5114088;28;20464;-38
2022/12/29 02:23:32;;;;;;;2.93;0.70;;;;;;;10.12;100.00;99943.28;5113798;28;20038;-38
2022/12/29 02:26:06;;;;;;;3.17;0.80;;;;;;;10.15;100.00;99946.31;5113979;28;20024;-38
2022/12/29 02:29:09;;;;;;;2.53;1.27;;;;;;;10.14;100.00;99936.53;5113276;28;20114;-38
2022/12/29 02:31:34;;;;;;;2.78;1.15;;;;;;;10.14;100.00;99930.31;5114182;28;20028;-38
2022/12/29 02:34:18;;;;;;;1.97;0.70;;;;;;;10.16;100.00;99933.59;5096294;28;20047;-37
2022/12/29 02:36:58;;;;;;;3.38;0.70;;;;;;;10.12;100.00;99927.06;5114029;28;20448;-38
2022/12/29 02:39:50;;;;;;;2.53;0.80;;;;;;;10.16;100.00;99918.22;5113937;28;20030;-38
2022/12/29 02:42:36;;;;;;;4.00;1.33;;;;;;;10.27;100.00;99930.00;5114046;28;20410;-38
2022/12/29 02:45:13;;;;;;;2.85;0.80;;;;;;;10.25;100.00;99927.53;5113518;28;20048;-38
2022/12/29 02:47:51;;;;;;;3.13;0.90;;;;;;;10.25;100.00;99910.53;5113849;28;20103;-38
2022/12/29 02:50:26;;;;;;;2.45;0.70;;;;;;;10.26;100.00;99928.38;5113279;28;20058;-38
2022/12/29 02:52:59;;;;;;;1.45;0.60;;;;;;;10.27;100.00;99938.09;5113459;28;20032;-38
2022/12/29 02:55:25;;;;;;;2.58;0.75;;;;;;;10.24;100.00;99928.59;5113362;28;20027;-38
2022/12/29 02:58:13;;;;;;;2.38;0.88;;;;;;;10.24;100.00;99933.19;5113097;28;20042;-38
2022/12/29 03:00:55;;;;;;;3.63;0.85;;;;;;;10.12;100.00;99914.38;5113667;28;20114;-38
2022/12/29 03:03:23;;;;;;;1.92;0.75;;;;;;;10.17;100.00;99919.84;5113776;28;20425;-38
2022/12/29 03:06:05;;;;;;;3.42;0.85;;;;;;;10.17;100.00;99913.63;5113876;28;20038;-38
2022/12/29 03:08:41;;;;;;;2.22;0.75;;;;;;;10.09;100.00;99911.34;5112922;28;20069;-38
2022/12/29 03:12:12;;;;;;;1.58;0.60;;;;;;;10.14;100.00;99920.31;5113207;28;20365;-38
2022/12/29 03:17:14;;;;;;;2.53;0.60;;;;;;;10.13;100.00;99902.50;5113396;28;20038;-38
2022/12/29 03:19:47;;;;;;;2.22;0.65;;;;;;;10.10;100.00;99919.19;5113064;28;20480;-38
2022/12/29 03:22:30;;;;;;;2.78;0.70;;;;;;;10.07;100.00;99911.59;5113577;28;20023;-38
2022/12/29 03:25:07;;;;;;;1.58;0.65;;;;;;;10.04;100.00;99912.91;5113716;28;20028;-38
2022/12/29 03:27:40;;;;;;;1.77;0.80;;;;;;;10.09;100.00;99914.03;5112896;28;20055;-38
2022/12/29 03:30:08;;;;;;;2.75;0.90;;;;;;;10.08;100.00;99915.94;5113010;28;20032;-38
2022/12/29 03:32:47;;;;;;;1.70;0.60;;;;;;;10.01;100.00;99894.53;5112701;28;20471;-38
2022/12/29 03:35:17;;;;;;;2.30;0.73;;;;;;;10.07;100.00;99904.31;5113057;28;20034;-38
2022/12/29 03:37:58;;;;;;;3.17;0.90;;;;;;;10.07;100.00;99909.72;5112815;28;20110;-38
2022/12/29 03:40:25;;;;;;;2.67;0.52;;;;;;;10.04;100.00;99912.09;5116999;28;20032;-38
2022/12/29 03:42:50;;;;;;;2.70;1.00;;;;;;;10.01;100.00;99908.03;5116558;28;20028;-37
2022/12/29 03:45:16;;;;;;;2.15;0.57;;;;;;;9.99;100.00;99909.31;5117184;28;20100;-38
2022/12/29 03:47:41;;;;;;;1.90;0.83;;;;;;;9.92;100.00;99906.81;5117375;28;20055;-38
2022/12/29 03:50:08;;;;;;;2.60;0.70;;;;;;;9.96;100.00;99918.75;5116925;28;20031;-38
2022/12/29 03:52:34;;;;;;;1.52;0.60;;;;;;;9.95;100.00;99908.19;5117065;28;20308;-38
2022/12/29 03:54:59;;;;;;;2.92;0.82;;;;;;;9.97;100.00;99906.88;5116840;28;20480;-38
2022/12/29 03:57:24;;;;;;;4.00;0.60;;;;;;;9.96;100.00;99912.53;5117138;28;20035;-38
2022/12/29 03:59:50;;;;;;;2.47;0.90;;;;;;;9.95;100.00;99916.28;5116955;28;20032;-38
2022/12/29 04:02:15;;;;;;;3.10;0.83;;;;;;;9.94;100.00;99904.66;5116627;28;20028;-38
2022/12/29 04:04:40;;;;;;;1.97;0.70;;;;;;;9.79;100.00;99896.38;5116514;28;20028;-38
2022/12/29 04:07:06;;;;;;;3.17;0.90;;;;;;;9.88;100.00;99913.78;5116452;28;20269;-38
2022/12/29 04:09:31;;;;;;;3.47;0.77;;;;;;;9.87;100.00;99924.84;5116549;28;20113;-38
2022/12/29 04:11:56;;;;;;;3.90;1.10;;;;;;;9.84;100.00;99926.13;5116426;28;20065;-38
2022/12/29 04:14:22;;;;;;;1.60;0.50;;;;;;;9.76;100.00;99919.28;5116406;28;20020;-38
2022/12/29 04:16:47;;;;;;;1.53;0.60;;;;;;;9.76;100.00;99905.78;5116331;28;20028;-38
2022/12/29 04:19:12;;;;;;;3.00;0.83;;;;;;;9.62;100.00;99893.72;5116070;28;20494;-38
2022/12/29 04:21:38;;;;;;;3.57;1.33;;;;;;;9.70;100.00;99924.84;5116005;28;20114;-38
2022/12/29 04:24:06;;;;;;;2.87;0.87;;;;;;;9.67;100.00;99933.47;5116091;28;20495;-38
2022/12/29 04:26:31;;;;;;;2.67;0.65;;;;;;;9.65;100.00;99932.88;5116024;28;20044;-38
2022/12/29 04:28:56;;;;;;;2.67;0.80;;;;;;;9.63;100.00;99940.41;5116155;28;20455;-38
2022/12/29 04:31:22;;;;;;;4.23;0.83;;;;;;;9.51;100.00;99919.69;5115723;28;20089;-38
2022/12/29 04:33:47;;;;;;;2.90;0.70;;;;;;;9.55;100.00;99933.53;5116482;28;20031;-38
2022/12/29 04:36:12;;;;;;;3.67;1.17;;;;;;;9.52;100.00;99939.44;5116408;28;20035;-38
2022/12/29 04:38:38;;;;;;;3.13;1.10;;;;;;;9.48;100.00;99928.31;5116664;28;20023;-38
2022/12/29 04:41:03;;;;;;;2.50;0.93;;;;;;;9.48;100.00;99943.69;5115614;28;20020;-38
2022/12/29 04:43:29;;;;;;;2.85;0.85;;;;;;;9.49;100.00;99948.00;5116260;28;20024;-38
2022/12/29 04:45:54;;;;;;;5.30;1.80;;;;;;;9.42;100.00;99921.22;5116275;28;20458;-38
2022/12/29 04:48:20;;;;;;;3.35;0.93;;;;;;;9.44;100.00;99927.16;5115977;28;20379;-38
2022/12/29 04:50:48;;;;;;;3.45;1.30;;;;;;;9.39;100.00;99935.19;5114757;28;20024;-38
2022/12/29 04:53:14;;;;;;;3.25;1.08;;;;;;;9.36;100.00;99946.44;5116119;28;20079;-38
2022/12/29 04:55:39;;;;;;;3.05;0.80;;;;;;;9.36;100.00;99961.81;5116147;28;20118;-38
2022/12/29 04:58:05;;;;;;;3.83;1.00;;;;;;;9.35;100.00;99962.88;5115937;28;20478;-38
2022/12/29 05:00:30;;;;;;;4.07;1.13;;;;;;;9.33;100.00;99973.13;5115920;28;20032;-37
2022/12/29 05:02:55;;;;;;;4.97;1.03;;;;;;;9.33;100.00;99979.34;5115728;28;20015;-38
2022/12/29 05:05:21;;;;;;;3.50;1.17;;;;;;;9.26;100.00;99965.16;5115412;28;20066;-38
2022/12/29 05:07:46;;;;;;;5.07;1.00;;;;;;;9.29;100.00;99965.50;5115913;28;20085;-38
2022/12/29 05:10:11;;;;;;;4.40;1.00;;;;;;;9.33;100.00;99971.25;5115884;28;20043;-38
2022/12/29 05:12:37;;;;;;;5.67;1.20;;;;;;;9.27;100.00;99986.53;5115851;28;20036;-38
2022/12/29 05:15:04;;;;;;;3.55;1.10;;;;;;;9.26;100.00;99990.25;5115238;28;20027;-38
2022/12/29 05:17:30;;;;;;;6.10;1.42;;;;;;;9.24;100.00;99995.09;5115282;28;20024;-38
2022/12/29 05:19:55;;;;;;;5.75;1.10;;;;;;;9.23;100.00;100000.75;5115268;28;20569;-38
2022/12/29 05:22:21;;;;;;;6.13;1.30;;;;;;;9.20;100.00;100012.81;5115625;28;20019;-38
2022/12/29 05:24:47;;;;;;;6.13;1.88;;;;;;;9.23;100.00;100022.31;5114624;28;20093;-38
2022/12/29 05:27:12;;;;;;;4.77;1.50;;;;;;;9.23;100.00;100012.34;5115411;28;20028;-38
2022/12/29 05:29:37;;;;;;;6.83;1.40;;;;;;;9.13;100.00;99997.88;5114723;28;20326;-38
2022/12/29 05:32:03;;;;;;;5.93;1.10;;;;;;;9.22;100.00;100020.66;5114782;28;20374;-38
2022/12/29 05:34:28;;;;;;;5.72;1.17;;;;;;;9.24;100.00;100013.16;5115305;28;20555;-38
2022/12/29 05:36:54;;;;;;;6.63;1.73;;;;;;;9.28;100.00;100020.53;5114771;28;20063;-38
2022/12/29 05:39:19;;;;;;;5.30;1.30;;;;;;;9.29;100.00;100027.56;5114719;28;20522;-38
2022/12/29 05:41:44;;;;;;;7.10;1.70;;;;;;;9.17;100.00;100004.38;5114984;28;20032;-38
2022/12/29 05:44:11;;;;;;;5.17;1.33;;;;;;;9.26;100.00;100016.44;5114782;28;20032;-38
2022/12/29 05:46:36;;;;;;;4.78;1.48;;;;;;;9.33;100.00;100022.50;5115294;28;20080;-38
2022/12/29 05:49:01;;;;;;;5.07;1.40;;;;;;;9.33;100.00;100027.91;5114792;28;20023;-37
2022/12/29 05:51:27;;;;;;;4.63;1.33;;;;;;;9.34;100.00;100029.53;5114442;28;20024;-38
2022/12/29 05:53:52;;;;;;;6.07;1.47;;;;;;;9.24;100.00;100011.28;5114777;28;20026;-38
2022/12/29 05:56:17;;;;;;;5.30;1.10;;;;;;;9.42;100.00;100042.63;5114681;28;20028;-38
2022/12/29 05:58:43;;;;;;;6.10;1.10;;;;;;;9.42;100.00;100034.53;5114335;28;20032;-38
2022/12/29 06:01:08;;;;;;;4.50;1.13;;;;;;;9.45;100.00;100042.13;5113938;28;20468;-38
2022/12/29 06:03:33;;;;;;;6.23;1.63;;;;;;;9.44;100.00;100045.91;5114442;28;20483;-38
2022/12/29 06:05:59;;;;;;;3.80;1.13;;;;;;;9.44;100.00;100047.78;5113929;28;20488;-38
2022/12/29 06:08:24;;;;;;;4.30;1.17;;;;;;;9.37;100.00;100020.97;5114866;28;20023;-38
2022/12/29 06:10:50;;;;;;;4.33;1.00;;;;;;;9.43;100.00;100033.47;5114074;28;20490;-38
2022/12/29 06:13:15;;;;;;;6.23;1.43;;;;;;;9.50;100.00;100044.91;5114240;28;20020;-38
2022/12/29 06:15:40;;;;;;;3.50;1.30;;;;;;;9.49;100.00;100037.06;5113901;28;20064;-38
2022/12/29 06:18:06;;;;;;;4.00;0.93;;;;;;;9.43;100.00;100024.56;5114040;28;20027;-38
2022/12/29 06:20:31;;;;;;;4.80;1.20;;;;;;;9.45;100.00;100028.63;5113928;28;20280;-38
2022/12/29 06:22:56;;;;;;;4.53;1.03;;;;;;;9.49;100.00;100028.97;5113886;28;20039;-38
2022/12/29 06:25:22;;;;;;;4.20;1.10;;;;;;;9.46;100.00;100016.78;5114093;28;20110;-38
2022/12/29 06:27:47;;;;;;;3.07;0.87;;;;;;;9.45;100.00;100019.72;5113841;28;20162;-38
2022/12/29 06:30:13;;;;;;;4.43;1.00;;;;;;;9.38;100.00;100019.91;5114252;28;20061;-38
2022/12/29 06:32:38;;;;;;;4.32;1.25;;;;;;;9.39;100.00;100032.31;5113517;28;20031;-38
2022/12/29 06:35:05;;;;;;;4.13;1.00;;;;;;;9.32;100.00;100026.28;5113770;28;20028;-38
2022/12/29 06:37:32;;;;;;;3.83;1.00;;;;;;;9.40;100.00;100025.03;5113585;28;20071;-38
2022/12/29 06:39:57;;;;;;;2.95;0.68;;;;;;;9.40;100.00;100027.75;5113928;28;20028;-38
2022/12/29 06:42:22;;;;;;;4.07;1.08;;;;;;;9.40;100.00;100033.94;5113290;28;20035;-38
2022/12/29 06:44:48;;;;;;;9.87;2.67;;;;;;;9.38;100.00;100027.16;5113855;28;20047;-38
2022/12/29 06:47:13;;;;;;;4.40;1.33;;;;;;;9.38;100.00;100033.38;5113802;28;20338;-38
2022/12/29 06:49:39;;;;;;;4.23;1.20;;;;;;;9.39;100.00;100024.22;5113701;28;20039;-38
2022/12/29 06:52:04;;;;;;;3.47;1.20;;;;;;;9.43;100.00;100027.25;5095174;28;20383;-38
2022/12/29 06:54:31;;;;;;;3.90;1.10;;;;;;;9.41;100.00;100030.19;5113674;28;20031;-38
2022/12/29 06:56:56;;;;;;;4.85;1.00;;;;;;;9.31;100.00;100031.88;5113403;28;20095;-38
2022/12/29 06:59:22;;;;;;;6.18;1.50;;;;;;;9.42;100.00;100025.59;5113636;28;20123;-38
2022/12/29 07:01:47;;;;;;;5.60;1.45;;;;;;;9.45;100.00;100030.53;5113304;28;20027;-38
2022/12/29 07:04:13;;;;;;;4.50;1.20;;;;;;;9.49;100.00;100029.78;5113518;28;20019;-38
2022/12/29 07:06:40;;;;;;;7.33;1.50;;;;;;;9.43;100.00;100017.28;5113844;28;20023;-38
2022/12/29 07:09:06;;;;;;;4.05;1.10;;;;;;;9.50;100.00;100038.72;5112976;28;20023;-38
2022/12/29 07:11:32;;;;;;;5.60;1.30;;;;;;;9.53;100.00;100041.75;5112986;28;20464;-38
2022/12/29 07:13:57;;;;;;;3.05;1.30;;;;;;;9.50;100.00;100044.91;5115974;28;20114;-38
2022/12/29 07:16:23;;;;;;;4.50;1.40;;;;;;;9.58;100.00;100049.13;5117510;28;20055;-38
2022/12/29 07:18:48;;;;;;;6.40;1.37;;;;;;;9.60;100.00;100060.47;5117564;28;20386;-38
2022/12/29 07:21:13;;;;;;;7.13;2.00;;;;;;;9.51;100.00;100045.72;5117137;28;20031;-37
2022/12/29 07:23:39;;;;;;;5.87;1.40;;;;;;;9.62;100.00;100060.25;5117606;28;20174;-38
2022/12/29 07:26:10;;;;;;;5.97;1.60;;;;;;;9.52;100.00;100058.19;5117360;28;20024;-38
2022/12/29 07:28:35;;;;;;;6.05;1.33;;;;;;;9.55;100.00;100074.69;5117081;28;20336;-38
2022/12/29 07:31:01;;;;;;;6.13;1.33;;;;;;;9.51;100.00;100073.53;5117091;28;20032;-38
2022/12/29 07:33:30;;;;;;;5.88;1.33;;;;;;;9.55;100.00;100080.09;5117760;28;20139;-38
2022/12/29 07:35:56;;;;;;;6.10;1.55;;;;;;;9.55;100.00;100080.09;5117296;28;20034;-38
2022/12/29 07:38:21;;;;;;;7.35;1.50;;;;;;;9.51;100.00;100078.13;5116762;28;20380;-38
2022/12/29 07:40:47;;;;;;;5.83;1.53;;;;;;;9.50;100.00;100079.19;5116631;28;20080;-38
2022/12/29 07:43:12;;;;;;;6.80;1.77;;;;;;;9.45;100.00;100085.31;5116916;28;20104;-38
2022/12/29 07:45:37;;;;;;;6.17;1.53;;;;;;;9.44;99.17;100077.47;5117423;28;20048;-38
2022/12/29 07:48:07;;;;;;;4.93;1.23;;;;;;;9.36;99.95;100088.63;5117284;28;20024;-38
2022/12/29 07:50:33;;;;;;;6.68;1.67;;;;;;;9.40;98.93;100087.09;5116552;28;20020;-38
2022/12/29 07:52:58;;;;;;;6.85;1.30;;;;;;;9.41;99.58;100084.16;5116888;28;20101;-38
2022/12/29 07:55:23;;;;;;;9.17;1.80;;;;;;;9.42;99.00;100102.00;5116578;28;20460;-38
2022/12/29 07:57:48;;;;;;;5.47;1.30;;;;;;;9.46;99.10;100103.13;5117701;28;20244;-37
2022/12/29 08:00:14;;;;;;;8.47;1.80;;;;;;;9.46;99.32;100100.44;5117281;28;20031;-38
2022/12/29 08:02:39;;;;;;;9.45;2.22;;;;;;;9.48;98.83;100100.22;5116191;28;20043;-38
2022/12/29 08:05:05;;;;;;;10.10;1.90;;;;;;;9.48;99.74;100116.41;5117109;28;20024;-38
2022/12/29 08:07:31;;;;;;;7.10;1.48;;;;;;;9.47;99.62;100103.97;5116188;28;20072;-38
2022/12/29 08:09:56;;;;;;;8.57;1.87;;;;;;;9.37;100.00;100101.06;5116558;28;20031;-38
2022/12/29 08:12:21;;;;;;;10.63;2.37;;;;;;;9.43;100.00;100103.63;5116509;28;20061;-38
2022/12/29 08:14:46;;;;;;;8.87;2.07;;;;;;;9.46;100.00;100110.41;5117120;28;20084;-38
2022/12/29 08:17:12;;;;;;;7.30;1.63;;;;;;;9.44;100.00;100120.66;5116186;28;20027;-38
2022/12/29 08:19:37;;;;;;;5.37;1.60;;;;;;;9.38;100.00;100108.13;5116779;28;20360;-38
2022/12/29 08:22:03;;;;;;;8.10;1.92;;;;;;;9.45;100.00;100116.88;5115969;28;20019;-38
2022/12/29 08:24:28;;;;;;;7.10;1.77;;;;;;;9.40;100.00;100109.50;5115310;28;20028;-38
2022/12/29 08:26:54;;;;;;;6.37;1.63;;;;;;;9.33;100.00;100086.44;5116139;28;20418;-38
2022/12/29 08:29:21;;;;;;;6.80;1.70;;;;;;;9.44;100.00;100110.66;5116129;28;20253;-38
2022/12/29 08:31:47;;;;;;;6.45;1.75;;;;;;;9.47;99.53;100118.28;5115942;28;20031;-38
2022/12/29 08:34:12;;;;;;;;;;;;;;;9.52;99.64;100121.09;5116397;28;20468;-38
2022/12/29 08:36:38;;;;;;;6.07;1.70;;;;;;;9.55;100.00;100119.75;5116295;28;19914;-38
2022/12/29 08:39:03;;;;;;;7.20;1.67;;;;;;;9.58;97.99;100110.38;5115666;28;20016;-38
2022/12/29 08:41:29;;;;;;;8.25;1.95;;;;;;;9.59;97.73;100107.44;5115886;28;20024;-38
2022/12/29 08:43:54;;;;;;;6.70;1.93;;;;;;;9.64;97.04;100109.41;5115630;28;20028;-38
2022/12/29 08:46:19;;;;;;;10.00;2.07;;;;;;;9.70;95.88;100111.13;5116283;28;20047;-38
2022/12/29 08:48:45;;;;;;;6.30;1.93;;;;;;;9.72;96.68;100109.03;5116610;28;20300;-38
2022/12/29 08:51:10;;;;;;;7.07;2.03;;;;;;;9.73;96.75;100118.75;5115816;28;20049;-38
2022/12/29 08:53:36;;;;;;;5.38;1.27;;;;;;;9.76;95.52;100113.69;5116237;28;20111;-38
2022/12/29 08:56:02;;;;;;;5.63;1.80;;;;;;;9.73;94.55;100106.06;5115643;28;20355;-38
2022/12/29 08:58:27;;;;;;;11.05;2.53;;;;;;;9.68;95.85;100111.38;5115614;28;20524;-38
2022/12/29 09:00:54;;;;;;;10.07;1.70;;;;;;;9.73;94.32;100110.66;5116042;28;20028;-38
2022/12/29 09:03:21;;;;;;;7.95;1.95;;;;;;;9.78;95.52;100110.75;5115503;28;20281;-38
2022/12/29 09:05:53;;;;;;;6.95;1.70;;;;;;;9.69;96.60;100106.78;5115332;28;20059;-38
2022/12/29 09:08:19;;;;;;;7.63;1.75;;;;;;;9.74;96.82;100123.09;5116023;28;20034;-38
2022/12/29 09:10:45;;;;;;;8.27;1.98;;;;;;;9.73;96.18;100116.06;5115307;28;20114;-38
2022/12/29 09:13:11;;;;;;;6.28;1.70;;;;;;;9.68;96.89;100115.97;5115578;28;20038;-37
2022/12/29 09:15:37;;;;;;;7.57;1.60;;;;;;;9.69;96.61;100112.19;5096744;28;20051;-38
2022/12/29 09:18:02;;;;;;;6.57;2.22;;;;;;;9.76;96.98;100132.59;5115746;28;20030;-38
2022/12/29 09:20:28;;;;;;;7.75;2.28;;;;;;;9.74;96.78;100123.09;5115612;28;20023;-38
2022/12/29 09:22:53;;;;;;;6.97;1.77;;;;;;;9.79;97.40;100132.09;5115328;28;20034;-38
2022/12/29 09:25:19;;;;;;;10.80;2.40;;;;;;;9.82;97.25;100143.47;5114688;28;20103;-38
2022/12/29 09:27:45;;;;;;;10.60;2.20;;;;;;;9.74;98.86;100136.59;5115003;28;20407;-38
2022/12/29 09:30:12;;;;;;;6.57;1.33;;;;;;;9.77;100.00;100146.91;5114983;28;20031;-38
2022/12/29 09:32:37;;;;;;;6.47;1.48;;;;;;;9.72;100.00;100144.13;5115389;28;20027;-38
2022/12/29 09:35:03;;;;;;;8.45;2.25;;;;;;;9.68;100.00;100159.97;5115397;28;20448;-38
2022/12/29 09:37:29;;;;;;;6.28;1.70;;;;;;;9.64;100.00;100161.50;5114120;28;20077;-38
2022/12/29 09:39:54;;;;;;;8.57;2.00;;;;;;;9.60;100.00;100167.63;5115395;28;20023;-38
2022/12/29 09:42:23;;;;;;;7.20;1.93;;;;;;;9.50;100.00;100169.06;5115202;28;20032;-38
2022/12/29 09:45:10;;;;;;;8.07;1.98;;;;;;;9.53;100.00;100176.69;5114461;28;20082;-38
2022/12/29 09:47:36;;;;;;;7.38;1.75;;;;;;;9.48;100.00;100170.38;5114891;28;20031;-38
2022/12/29 09:50:32;;;;;;;5.95;1.60;;;;;;;9.43;100.00;100176.50;5115159;28;20036;-38
2022/12/29 09:53:35;;;;;;;8.40;2.35;;;;;;;9.42;100.00;100182.97;5114157;28;20480;-38
2022/12/29 09:56:01;;;;;;;8.20;1.80;;;;;;;9.35;100.00;100179.56;5095914;28;20051;-38
2022/12/29 09:58:39;;;;;;;4.93;1.60;;;;;;;9.35;100.00;100184.16;5114849;28;20031;-38
2022/12/29 10:01:06;;;;;;;6.70;1.80;;;;;;;9.31;100.00;100193.78;5095867;28;20067;-38
2022/12/29 10:03:54;;;;;;;7.18;1.95;;;;;;;9.28;100.00;100208.56;5113798;28;20031;-38
2022/12/29 10:06:31;;;;;;;7.95;1.77;;;;;;;9.23;100.00;100205.75;5114252;28;20465;-38
2022/12/29 10:09:00;;;;;;;5.80;1.52;;;;;;;9.15;100.00;100222.31;5114690;28;20023;-38
2022/12/29 10:11:32;;;;;;;6.88;1.90;;;;;;;9.06;100.00;100219.13;5114125;28;20055;-37
2022/12/29 10:14:12;;;;;;;8.23;1.90;;;;;;;9.11;100.00;100235.44;5114613;28;20036;-38
2022/12/29 10:16:56;;;;;;;5.82;1.67;;;;;;;9.06;100.00;100226.41;5114354;28;20030;-38
2022/12/29 10:19:31;;;;;;;6.32;1.35;;;;;;;8.93;100.00;100217.53;5102457;28;20032;-38
2022/12/29 10:22:16;;;;;;;5.38;1.42;;;;;;;9.03;100.00;100249.31;5094368;28;20102;-38
2022/12/29 10:24:45;;;;;;;7.70;1.75;;;;;;;8.99;100.00;100259.72;5093471;28;20032;-38
2022/12/29 10:27:13;;;;;;;4.55;1.30;;;;;;;8.94;100.00;100248.81;5093491;28;20457;-38
2022/12/29 10:29:54;;;;;;;8.80;1.98;;;;;;;8.98;100.00;100274.28;5094033;28;20077;-38
2022/12/29 10:32:40;;;;;;;5.35;1.75;;;;;;;8.93;100.00;100282.25;5093507;28;20028;-38
2022/12/29 10:35:14;;;;;;;7.38;2.00;;;;;;;8.93;100.00;100278.69;5093225;28;20032;-38
2022/12/29 10:37:57;;;;;;;8.18;1.75;;;;;;;8.90;100.00;100273.78;5094074;28;20025;-38
2022/12/29 10:40:52;;;;;;;7.88;2.60;;;;;;;8.93;100.00;100284.94;5093547;28;20056;-37
2022/12/29 10:43:34;;;;;;;9.57;2.33;;;;;;;8.89;100.00;100286.47;5011515;28;20045;-38
2022/12/29 10:46:08;;;;;;;6.70;1.98;;;;;;;8.87;100.00;100293.94;5024057;28;20243;-38
2022/12/29 10:48:34;;;;;;;8.30;1.95;;;;;;;8.82;100.00;100283.03;5030273;28;20045;-38
2022/12/29 10:51:04;;;;;;;7.32;2.38;;;;;;;8.89;100.00;100305.34;5030659;28;20044;-37
2022/12/29 10:53:52;;;;;;;10.02;2.45;;;;;;;8.90;100.00;100298.88;5030848;28;20041;-38
2022/12/29 10:56:40;;;;;;;9.90;2.63;;;;;;;8.81;100.00;100291.38;5031126;28;20466;-37
2022/12/29 10:59:28;;;;;;;10.13;2.47;;;;;;;8.85;100.00;100306.84;5030914;28;20112;-38
2022/12/29 11:02:11;;;;;;;7.68;2.10;;;;;;;8.82;100.00;100296.50;5031065;28;20034;-38
2022/12/29 11:05:05;;;;;;;10.73;2.30;;;;;;;8.91;100.00;100315.88;5030782;28;20482;-38
2022/12/29 11:07:31;;;;;;;10.35;4.68;;;;;;;8.91;100.00;100329.34;5030720;28;20445;-38
2022/12/29 11:10:28;;;;;;;13.27;4.10;;;;;;;8.92;100.00;100314.81;5030636;28;20041;-38
2022/12/29 11:12:59;;;;;;;9.02;3.30;;;;;;;8.97;100.00;100325.72;5030768;28;20045;-38
2022/12/29 11:15:25;;;;;;;7.53;2.63;;;;;;;8.90;100.00;100317.75;5031251;28;20471;-38
2022/12/29 11:17:56;;;;;;;6.90;2.47;;;;;;;9.04;100.00;100331.84;5030898;28;20038;-38
2022/12/29 11:20:33;;;;;;;8.52;2.38;;;;;;;9.04;100.00;100339.94;5063647;28;20040;-38
2022/12/29 11:22:59;;;;;;;10.73;4.25;;;;;;;9.10;100.00;100338.19;5072462;28;20069;-38
2022/12/29 11:25:24;;;;;;;;;;;;;;;9.21;100.00;100342.75;5073454;28;20090;-38
2022/12/29 11:28:02;;;;;;;11.77;4.70;;;;;;;9.20;100.00;100349.22;5072248;28;19908;-37
2022/12/29 11:30:31;;;;;;;8.68;2.78;;;;;;;9.19;100.00;100340.28;5072593;28;20392;-38
2022/12/29 11:32:57;;;;;;;7.88;2.30;;;;;;;9.19;100.00;100361.06;5072782;28;20461;-38
2022/12/29 11:35:40;;;;;;;8.60;2.50;;;;;;;9.19;100.00;100361.06;5073084;28;20032;-38
2022/12/29 11:38:06;;;;;;;8.13;2.92;;;;;;;9.18;100.00;100356.72;5072637;28;20461;-38
2022/12/29 11:40:38;;;;;;;6.57;2.25;;;;;;;9.22;100.00;100368.66;5072575;28;20032;-38
2022/12/29 11:43:04;;;;;;;11.07;3.30;;;;;;;9.31;100.00;100356.47;5072857;28;20472;-38
2022/12/29 11:45:34;;;;;;;9.85;2.50;;;;;;;9.40;100.00;100357.78;5059962;28;20404;-38
2022/12/29 11:48:19;;;;;;;10.82;2.83;;;;;;;9.42;100.00;100358.38;5092161;28;20563;-38
2022/12/29 11:51:00;;;;;;;11.57;2.63;;;;;;;9.41;100.00;100370.19;5092696;28;20050;-38
2022/12/29 11:53:37;;;;;;;9.57;2.60;;;;;;;9.42;100.00;100377.28;5093212;28;20032;-38
2022/12/29 11:56:05;;;;;;;;;;;;;;;9.47;100.00;100377.38;5092972;28;20024;-37
2022/12/29 11:58:33;;;;;;;9.85;2.60;;;;;;;9.45;100.00;100381.34;5093435;28;19912;-38
2022/12/29 12:01:19;;;;;;;9.73;2.88;;;;;;;9.44;100.00;100383.25;5096395;28;20024;-38
2022/12/29 12:04:15;;;;;;;8.32;2.28;;;;;;;9.50;100.00;100376.06;5096684;28;20024;-38
2022/12/29 12:06:50;;;;;;;9.63;2.60;;;;;;;9.54;100.00;100379.94;5095101;28;20040;-38
2022/12/29 12:09:27;;;;;;;8.27;2.13;;;;;;;9.50;100.00;100378.78;5096690;28;20372;-38
2022/12/29 12:11:54;;;;;;;9.82;2.40;;;;;;;9.50;100.00;100385.00;5096127;28;20028;-38